createdAt,value
2019-05-30T00:00:44.944Z,20.03
2019-05-30T00:03:23.241Z,20.03
2019-05-30T00:05:58.370Z,20.06
2019-05-30T00:08:38.362Z,20.07
2019-05-30T00:11:19.464Z,20.07
2019-05-30T00:13:56.926Z,19.99
2019-05-30T00:16:37.635Z,19.92
2019-05-30T00:19:14.830Z,19.86
2019-05-30T00:21:55.085Z,19.77
2019-05-30T00:24:41.192Z,19.72
2019-05-30T00:27:17.392Z,19.63
2019-05-30T00:29:57.173Z,19.60
2019-05-30T00:32:33.529Z,19.60
2019-05-30T00:35:43.563Z,19.57
2019-05-30T00:38:19.923Z,19.54
2019-05-30T00:40:58.208Z,19.53
2019-05-30T00:43:34.661Z,19.50
2019-05-30T00:46:12.574Z,19.51
2019-05-30T00:48:45.578Z,19.49
2019-05-30T00:51:18.188Z,19.51
2019-05-30T00:53:58.738Z,19.45
2019-05-30T00:56:35.039Z,19.44
2019-05-30T00:59:12.318Z,19.41
2019-05-30T01:01:46.667Z,19.39
2019-05-30T01:04:21.712Z,19.36
2019-05-30T01:06:56.922Z,19.32
2019-05-30T01:09:37.384Z,19.32
2019-05-30T01:12:15.108Z,19.30
2019-05-30T01:14:58.920Z,19.27
2019-05-30T01:17:33.138Z,19.24
2019-05-30T01:20:12.067Z,19.22
2019-05-30T01:22:54.297Z,19.22
2019-05-30T01:25:28.221Z,19.15
2019-05-30T01:28:08.043Z,19.13
2019-05-30T01:30:56.840Z,19.09
2019-05-30T01:33:22.957Z,19.03
2019-05-30T01:36:03.744Z,18.94
2019-05-30T01:38:35.833Z,18.94
2019-05-30T01:41:17.429Z,18.91
2019-05-30T01:43:59.861Z,18.91
2019-05-30T01:46:34.088Z,18.93
2019-05-30T01:49:18.621Z,18.85
2019-05-30T01:51:58.339Z,18.85
2019-05-30T01:54:35.655Z,18.77
2019-05-30T01:57:13.722Z,18.78
2019-05-30T01:59:58.603Z,18.78
2019-05-30T02:02:29.402Z,18.79
2019-05-30T02:05:09.879Z,18.77
2019-05-30T02:07:49.571Z,18.76
2019-05-30T02:10:30.237Z,18.77
2019-05-30T02:13:13.591Z,18.74
2019-05-30T02:15:49.614Z,18.73
2019-05-30T02:18:26.960Z,18.69
2019-05-30T02:21:03.798Z,18.67
2019-05-30T02:23:43.604Z,18.66
2019-05-30T02:26:16.042Z,18.49
2019-05-30T02:28:49.203Z,18.46
2019-05-30T02:31:38.667Z,18.35
2019-05-30T02:34:12.340Z,18.29
2019-05-30T02:36:50.557Z,18.19
2019-05-30T02:39:28.672Z,18.11
2019-05-30T02:42:03.409Z,18.05
2019-05-30T02:44:40.012Z,17.95
2019-05-30T02:47:16.258Z,17.94
2019-05-30T02:49:55.107Z,17.94
2019-05-30T02:52:39.559Z,17.89
2019-05-30T02:55:16.871Z,17.93
2019-05-30T02:58:03.564Z,17.89
2019-05-30T03:00:37.439Z,18.01
2019-05-30T03:03:24.294Z,18.04
2019-05-30T03:05:59.423Z,18.03
2019-05-30T03:08:34.679Z,18.09
2019-05-30T03:11:16.718Z,18.10
2019-05-30T03:13:55.602Z,18.12
2019-05-30T03:16:39.424Z,18.13
2019-05-30T03:19:17.708Z,18.20
2019-05-30T03:21:56.758Z,18.24
2019-05-30T03:24:36.956Z,18.21
2019-05-30T03:27:11.835Z,18.30
2019-05-30T03:29:47.153Z,18.29
2019-05-30T03:33:01.979Z,18.29
2019-05-30T03:35:06.129Z,18.37
2019-05-30T03:37:42.915Z,18.43
2019-05-30T03:40:23.488Z,18.45
2019-05-30T03:42:57.113Z,18.58
2019-05-30T03:45:36.625Z,18.67
2019-05-30T03:48:14.330Z,18.77
2019-05-30T03:50:52.610Z,18.86
2019-05-30T03:53:34.657Z,18.91
2019-05-30T03:56:22.647Z,19.00
2019-05-30T03:59:19.149Z,19.05
2019-05-30T04:02:32.352Z,19.13
2019-05-30T04:05:16.065Z,19.23
2019-05-30T04:07:54.398Z,19.29
2019-05-30T04:10:35.616Z,19.35
2019-05-30T04:13:20.678Z,19.39
2019-05-30T04:15:53.995Z,19.52
2019-05-30T04:18:33.233Z,19.63
2019-05-30T04:21:14.109Z,19.70
2019-05-30T04:23:52.197Z,19.70
2019-05-30T04:26:28.142Z,19.75
2019-05-30T04:29:05.471Z,19.77
2019-05-30T04:31:51.684Z,19.81
2019-05-30T04:34:40.285Z,19.90
2019-05-30T04:37:20.573Z,19.81
2019-05-30T04:39:54.953Z,19.86
2019-05-30T04:42:28.366Z,20.01
2019-05-30T04:45:15.984Z,20.14
2019-05-30T04:47:50.402Z,20.21
2019-05-30T04:50:28.538Z,20.17
2019-05-30T04:52:57.965Z,20.36
2019-05-30T04:55:29.847Z,20.41
2019-05-30T04:58:13.267Z,20.48
2019-05-30T05:00:53.643Z,20.54
2019-05-30T05:03:45.017Z,20.67
2019-05-30T05:06:07.653Z,20.67
2019-05-30T05:08:41.928Z,20.79
2019-05-30T05:11:16.595Z,20.77
2019-05-30T05:13:53.361Z,20.88
2019-05-30T05:16:35.417Z,20.98
2019-05-30T05:19:07.083Z,21.19
2019-05-30T05:21:45.603Z,21.24
2019-05-30T05:24:23.629Z,21.35
2019-05-30T05:27:01.127Z,21.47
2019-05-30T05:29:35.090Z,21.56
2019-05-30T05:32:14.129Z,21.64
2019-05-30T05:34:52.123Z,21.76
2019-05-30T05:37:25.357Z,21.79
2019-05-30T05:40:00.530Z,21.80
2019-05-30T05:42:37.860Z,21.97
2019-05-30T05:45:09.862Z,22.15
2019-05-30T05:47:47.601Z,22.32
2019-05-30T05:50:34.909Z,22.45
2019-05-30T05:53:10.827Z,22.54
2019-05-30T05:55:45.751Z,22.70
2019-05-30T05:58:30.260Z,22.77
2019-05-30T06:01:05.799Z,22.88
2019-05-30T06:03:47.493Z,22.99
2019-05-30T06:06:23.539Z,23.09
2019-05-30T06:09:01.620Z,23.24
2019-05-30T06:11:35.568Z,23.37
2019-05-30T06:14:10.744Z,23.42
2019-05-30T06:16:47.423Z,23.52
2019-05-30T06:19:25.359Z,23.71
2019-05-30T06:22:07.782Z,23.70
2019-05-30T06:25:00.137Z,23.74
2019-05-30T06:27:58.319Z,23.93
2019-05-30T06:30:34.013Z,24.10
2019-05-30T06:33:11.073Z,24.24
2019-05-30T06:35:45.761Z,24.39
2019-05-30T06:38:35.598Z,24.49
2019-05-30T06:41:12.076Z,24.55
2019-05-30T06:44:08.072Z,24.68
2019-05-30T06:46:44.401Z,24.99
2019-05-30T06:49:22.770Z,24.97
2019-05-30T06:51:58.109Z,25.13
2019-05-30T06:54:45.785Z,25.40
2019-05-30T06:57:16.903Z,25.55
2019-05-30T07:00:00.324Z,25.84
2019-05-30T07:02:42.544Z,25.69
2019-05-30T07:05:18.828Z,25.89
2019-05-30T07:07:57.696Z,26.05
2019-05-30T07:10:31.118Z,26.29
2019-05-30T07:13:02.823Z,26.53
2019-05-30T07:15:37.902Z,26.65
2019-05-30T07:18:40.137Z,26.57
2019-05-30T07:21:29.816Z,26.74
2019-05-30T07:24:11.237Z,26.87
2019-05-30T07:26:45.824Z,27.22
2019-05-30T07:29:19.551Z,26.97
2019-05-30T07:31:53.276Z,27.27
2019-05-30T07:34:32.459Z,27.24
2019-05-30T07:37:04.215Z,27.47
2019-05-30T07:39:43.454Z,27.45
2019-05-30T07:42:15.590Z,27.71
2019-05-30T07:44:48.985Z,27.92
2019-05-30T07:47:20.701Z,27.80
2019-05-30T07:49:53.482Z,28.02
2019-05-30T07:52:26.383Z,27.82
2019-05-30T07:55:04.549Z,28.05
2019-05-30T07:57:41.445Z,28.39
2019-05-30T08:00:18.778Z,28.70
2019-05-30T08:02:53.845Z,29.00
2019-05-30T08:05:33.257Z,28.91
2019-05-30T08:08:08.216Z,28.67
2019-05-30T08:10:46.568Z,28.65
2019-05-30T08:13:19.591Z,28.82
2019-05-30T08:15:57.735Z,29.19
2019-05-30T08:18:29.560Z,29.54
2019-05-30T08:21:11.775Z,29.61
2019-05-30T08:23:45.513Z,29.58
2019-05-30T08:26:18.612Z,29.30
2019-05-30T08:29:09.655Z,29.39
2019-05-30T08:31:56.538Z,29.78
2019-05-30T08:34:40.213Z,29.48
2019-05-30T08:37:18.913Z,29.78
2019-05-30T08:39:54.580Z,30.03
2019-05-30T08:42:38.168Z,29.94
2019-05-30T08:45:17.574Z,29.71
2019-05-30T08:48:01.162Z,29.89
2019-05-30T08:50:49.730Z,30.10
2019-05-30T08:53:24.161Z,30.03
2019-05-30T08:56:15.083Z,30.37
2019-05-30T08:59:09.642Z,30.45
2019-05-30T09:01:42.104Z,30.53
2019-05-30T09:04:14.584Z,30.07
2019-05-30T09:06:46.932Z,30.13
2019-05-30T09:09:18.695Z,30.29
2019-05-30T09:11:50.400Z,30.52
2019-05-30T09:14:22.158Z,30.98
2019-05-30T09:16:55.069Z,31.45
2019-05-30T09:19:27.166Z,32.04
2019-05-30T09:21:58.887Z,31.84
2019-05-30T09:24:30.476Z,31.07
2019-05-30T09:27:02.030Z,30.75
2019-05-30T09:29:33.954Z,30.20
2019-05-30T09:32:05.916Z,30.46
2019-05-30T09:34:38.346Z,30.22
2019-05-30T09:37:11.443Z,29.58
2019-05-30T09:39:43.437Z,30.28
2019-05-30T09:42:15.230Z,30.98
2019-05-30T09:44:50.424Z,31.26
2019-05-30T09:47:20.964Z,31.13
2019-05-30T09:49:53.047Z,31.51
2019-05-30T09:52:26.111Z,31.76
2019-05-30T09:54:58.212Z,32.32
2019-05-30T09:57:30.944Z,31.97
2019-05-30T10:00:02.942Z,31.94
2019-05-30T10:02:34.908Z,32.51
2019-05-30T10:05:07.349Z,33.03
2019-05-30T10:07:39.138Z,32.76
2019-05-30T10:10:11.191Z,32.60
2019-05-30T10:12:43.868Z,32.61
2019-05-30T10:17:20.837Z,33.08
2019-05-30T10:19:53.854Z,33.56
2019-05-30T10:22:25.561Z,33.95
2019-05-30T10:24:57.275Z,34.04
2019-05-30T10:27:29.516Z,33.61
2019-05-30T10:30:02.215Z,33.67
2019-05-30T10:32:35.534Z,33.98
2019-05-30T10:35:08.189Z,34.47
2019-05-30T10:37:43.070Z,33.93
2019-05-30T10:40:14.961Z,33.62
2019-05-30T10:42:49.562Z,33.84
2019-05-30T10:45:22.914Z,33.76
2019-05-30T10:47:56.075Z,34.07
2019-05-30T10:50:29.616Z,34.28
2019-05-30T10:53:01.388Z,34.45
2019-05-30T10:55:33.766Z,34.72
2019-05-30T10:58:05.574Z,35.03
2019-05-30T11:00:53.778Z,35.40
2019-05-30T11:03:27.616Z,34.83
2019-05-30T11:06:25.374Z,35.09
2019-05-30T11:08:59.391Z,35.15
2019-05-30T11:11:31.234Z,35.24
2019-05-30T11:14:02.980Z,35.70
2019-05-30T11:16:34.676Z,35.47
2019-05-30T11:19:07.639Z,35.25
2019-05-30T11:21:40.659Z,35.13
2019-05-30T11:24:12.980Z,34.28
2019-05-30T11:26:44.830Z,34.47
2019-05-30T11:29:16.653Z,34.55
2019-05-30T11:31:48.795Z,34.74
2019-05-30T11:34:23.395Z,34.40
2019-05-30T11:36:55.217Z,34.49
2019-05-30T11:39:29.264Z,34.10
2019-05-30T11:42:04.045Z,34.39
2019-05-30T11:44:36.287Z,34.60
2019-05-30T11:47:08.341Z,34.98
2019-05-30T11:49:40.230Z,35.20
2019-05-30T11:52:12.062Z,35.23
2019-05-30T11:54:44.061Z,35.66
2019-05-30T11:57:15.927Z,35.44
2019-05-30T11:59:47.850Z,35.40
2019-05-30T12:02:19.426Z,35.52
2019-05-30T12:04:52.514Z,35.86
2019-05-30T12:07:35.698Z,35.41
2019-05-30T12:10:01.390Z,35.50
2019-05-30T12:12:34.606Z,35.16
2019-05-30T12:15:07.125Z,35.49
2019-05-30T12:17:39.191Z,35.55
2019-05-30T12:20:12.160Z,34.74
2019-05-30T12:22:43.937Z,35.03
2019-05-30T12:25:16.509Z,34.75
2019-05-30T12:27:48.867Z,34.18
2019-05-30T12:30:21.703Z,33.77
2019-05-30T12:32:54.209Z,33.50
2019-05-30T12:35:26.467Z,33.85
2019-05-30T12:38:01.410Z,34.56
2019-05-30T12:40:32.178Z,34.60
2019-05-30T12:43:05.036Z,35.18
2019-05-30T12:45:36.868Z,34.75
2019-05-30T12:48:08.700Z,34.65
2019-05-30T12:50:40.502Z,34.57
2019-05-30T12:53:12.115Z,34.36
2019-05-30T12:55:46.245Z,34.63
2019-05-30T12:58:17.994Z,34.44
2019-05-30T13:00:49.815Z,34.02
2019-05-30T13:03:21.613Z,33.71
2019-05-30T13:05:55.042Z,33.72
2019-05-30T13:08:27.377Z,33.87
2019-05-30T13:11:01.552Z,33.73
2019-05-30T13:13:34.598Z,33.77
2019-05-30T13:16:08.532Z,33.35
2019-05-30T13:18:40.696Z,33.13
2019-05-30T13:21:12.409Z,32.81
2019-05-30T13:23:45.105Z,32.78
2019-05-30T13:26:29.186Z,32.16
2019-05-30T13:29:03.173Z,32.19
2019-05-30T13:31:37.687Z,31.96
2019-05-30T13:34:09.352Z,32.09
2019-05-30T13:36:41.071Z,32.22
2019-05-30T13:39:12.901Z,32.29
2019-05-30T13:41:44.665Z,32.37
2019-05-30T13:44:17.393Z,32.44
2019-05-30T13:46:49.101Z,32.96
2019-05-30T13:49:20.948Z,32.99
2019-05-30T13:51:52.658Z,32.93
2019-05-30T13:54:25.043Z,33.02
2019-05-30T13:56:56.866Z,32.47
2019-05-30T13:59:29.068Z,32.31
2019-05-30T14:02:01.873Z,31.77
2019-05-30T14:04:34.250Z,31.14
2019-05-30T14:07:08.361Z,31.05
2019-05-30T14:09:40.232Z,31.10
2019-05-30T14:12:11.971Z,31.10
2019-05-30T14:14:44.279Z,31.07
2019-05-30T14:17:16.137Z,31.26
2019-05-30T14:19:47.974Z,31.23
2019-05-30T14:22:19.780Z,31.03
2019-05-30T14:24:53.868Z,30.52
2019-05-30T14:27:25.497Z,30.24
2019-05-30T14:29:57.537Z,30.12
2019-05-30T14:32:29.715Z,30.32
2019-05-30T14:35:02.510Z,30.63
2019-05-30T14:37:35.320Z,30.97
2019-05-30T14:40:08.832Z,31.23
2019-05-30T14:42:40.895Z,31.49
2019-05-30T14:45:14.877Z,31.61
2019-05-30T14:47:46.521Z,31.62
2019-05-30T14:50:19.402Z,31.67
2019-05-30T14:52:51.419Z,31.67
2019-05-30T14:55:24.023Z,31.80
2019-05-30T14:57:58.266Z,31.89
2019-05-30T15:00:29.683Z,31.68
2019-05-30T15:03:01.699Z,31.51
2019-05-30T15:05:34.056Z,31.32
2019-05-30T15:08:06.495Z,31.12
2019-05-30T15:10:39.573Z,31.14
2019-05-30T15:13:11.674Z,31.09
2019-05-30T15:15:43.811Z,31.13
2019-05-30T15:18:15.619Z,31.23
2019-05-30T15:20:47.442Z,31.24
2019-05-30T15:23:19.287Z,31.30
2019-05-30T15:25:51.249Z,31.08
2019-05-30T15:28:24.257Z,30.74
2019-05-30T15:30:56.894Z,30.36
2019-05-30T15:33:28.743Z,30.29
2019-05-30T15:36:00.419Z,29.94
2019-05-30T15:38:33.773Z,30.10
2019-05-30T15:41:06.979Z,29.86
2019-05-30T15:43:38.827Z,29.69
2019-05-30T15:46:11.778Z,29.51
2019-05-30T15:48:47.199Z,29.26
2019-05-30T15:51:20.596Z,28.96
2019-05-30T15:53:52.783Z,29.01
2019-05-30T15:56:24.574Z,28.93
2019-05-30T15:58:56.950Z,28.95
2019-05-30T16:01:28.587Z,28.83
2019-05-30T16:04:00.411Z,28.78
2019-05-30T16:06:32.568Z,28.53
2019-05-30T16:09:06.683Z,28.28
2019-05-30T16:11:38.923Z,28.19
2019-05-30T16:14:11.140Z,27.97
2019-05-30T16:16:44.273Z,28.02
2019-05-30T16:19:22.106Z,28.00
2019-05-30T16:21:49.990Z,27.92
2019-05-30T16:24:22.351Z,27.91
2019-05-30T16:26:53.950Z,27.79
2019-05-30T16:29:26.267Z,27.73
2019-05-30T16:31:59.309Z,27.49
2019-05-30T16:34:32.854Z,27.40
2019-05-30T16:37:04.929Z,27.37
2019-05-30T16:39:36.680Z,27.34
2019-05-30T16:42:11.170Z,27.23
2019-05-30T16:44:44.476Z,27.10
2019-05-30T16:47:16.633Z,27.11
2019-05-30T16:49:48.319Z,26.89
2019-05-30T16:52:23.057Z,26.84
2019-05-30T16:54:54.998Z,26.73
2019-05-30T16:57:26.765Z,26.74
2019-05-30T17:00:00.783Z,26.76
2019-05-30T17:02:32.987Z,26.67
2019-05-30T17:05:07.670Z,26.61
2019-05-30T17:07:40.451Z,26.45
2019-05-30T17:10:22.208Z,26.47
2019-05-30T17:12:46.005Z,26.42
2019-05-30T17:15:20.004Z,26.39
2019-05-30T17:17:52.045Z,26.42
2019-05-30T17:20:24.557Z,26.29
2019-05-30T17:22:56.922Z,26.15
2019-05-30T17:25:29.477Z,25.96
2019-05-30T17:28:01.173Z,25.87
2019-05-30T17:30:33.020Z,25.63
2019-05-30T17:33:04.600Z,25.57
2019-05-30T17:35:36.886Z,25.59
2019-05-30T17:38:08.549Z,25.40
2019-05-30T17:40:45.563Z,25.39
2019-05-30T17:43:14.787Z,25.38
2019-05-30T17:45:46.618Z,25.30
2019-05-30T17:48:19.333Z,25.20
2019-05-30T17:50:51.088Z,24.91
2019-05-30T17:53:23.969Z,24.88
2019-05-30T17:55:59.268Z,24.62
2019-05-30T17:58:31.170Z,24.67
2019-05-30T18:01:04.067Z,24.62
2019-05-30T18:03:35.765Z,24.58
2019-05-30T18:06:07.587Z,24.54
2019-05-30T18:08:39.351Z,24.48
2019-05-30T18:11:11.008Z,24.49
2019-05-30T18:13:42.553Z,24.54
2019-05-30T18:16:14.203Z,24.42
2019-05-30T18:18:45.858Z,24.36
2019-05-30T18:21:21.255Z,24.40
2019-05-30T18:23:53.822Z,24.37
2019-05-30T18:26:25.575Z,24.35
2019-05-30T18:28:57.377Z,24.20
2019-05-30T18:31:30.143Z,24.10
2019-05-30T18:34:02.038Z,24.11
2019-05-30T18:36:34.678Z,24.08
2019-05-30T18:39:08.138Z,24.05
2019-05-30T18:41:41.395Z,24.02
2019-05-30T18:44:13.181Z,24.00
2019-05-30T18:46:45.388Z,24.01
2019-05-30T18:49:17.614Z,24.01
2019-05-30T18:51:49.359Z,23.99
2019-05-30T18:54:22.218Z,24.00
2019-05-30T18:56:53.909Z,23.98
2019-05-30T18:59:25.590Z,23.97
2019-05-30T19:01:58.588Z,23.93
2019-05-30T19:04:31.648Z,23.88
2019-05-30T19:07:03.494Z,23.87
2019-05-30T19:09:37.504Z,23.68
2019-05-30T19:12:10.161Z,23.52
2019-05-30T19:14:41.850Z,23.32
2019-05-30T19:17:14.917Z,23.43
2019-05-30T19:19:46.548Z,23.31
2019-05-30T19:22:18.874Z,23.37
2019-05-30T19:24:52.330Z,23.37
2019-05-30T19:27:24.002Z,23.28
2019-05-30T19:29:55.792Z,23.20
2019-05-30T19:32:28.578Z,23.05
2019-05-30T19:35:01.495Z,23.11
2019-05-30T19:37:35.317Z,23.08
2019-05-30T19:40:08.960Z,23.11
2019-05-30T19:42:41.942Z,23.03
2019-05-30T19:45:15.726Z,23.00
2019-05-30T19:47:48.196Z,22.98
2019-05-30T19:50:20.676Z,22.97
2019-05-30T19:52:53.046Z,22.99
2019-05-30T19:55:24.681Z,22.89
2019-05-30T19:57:57.107Z,22.86
2019-05-30T20:00:29.904Z,22.88
2019-05-30T20:03:02.150Z,22.95
2019-05-30T20:05:34.576Z,22.90
2019-05-30T20:08:07.196Z,22.73
2019-05-30T20:10:39.216Z,22.75
2019-05-30T20:13:11.105Z,22.71
2019-05-30T20:15:42.894Z,22.60
2019-05-30T20:18:15.754Z,22.62
2019-05-30T20:20:56.963Z,22.60
2019-05-30T20:23:21.185Z,22.63
2019-05-30T20:25:53.087Z,22.65
2019-05-30T20:28:25.203Z,22.66
2019-05-30T20:30:58.231Z,22.70
2019-05-30T20:33:30.065Z,22.73
2019-05-30T20:36:09.195Z,22.73
2019-05-30T20:38:40.966Z,22.72
2019-05-30T20:41:12.640Z,22.70
2019-05-30T20:43:45.678Z,22.71
2019-05-30T20:46:23.161Z,22.76
2019-05-30T20:48:50.931Z,22.75
2019-05-30T20:51:23.377Z,22.70
2019-05-30T20:53:58.835Z,22.72
2019-05-30T20:56:32.486Z,22.71
2019-05-30T20:59:05.667Z,22.66
2019-05-30T21:01:38.075Z,22.62
2019-05-30T21:04:10.261Z,22.63
2019-05-30T21:07:03.422Z,22.59
2019-05-30T21:09:35.998Z,22.57
2019-05-30T21:12:07.701Z,22.54
2019-05-30T21:14:41.475Z,22.45
2019-05-30T21:17:15.923Z,22.45
2019-05-30T21:19:49.363Z,22.44
2019-05-30T21:22:21.116Z,22.45
2019-05-30T21:24:52.927Z,22.50
2019-05-30T21:27:24.757Z,22.46
2019-05-30T21:29:57.212Z,22.39
2019-05-30T21:32:30.446Z,22.42
2019-05-30T21:35:03.275Z,22.44
2019-05-30T21:37:35.073Z,22.43
2019-05-30T21:40:07.907Z,22.36
2019-05-30T21:42:55.403Z,22.30
2019-05-30T21:45:13.443Z,22.18
2019-05-30T21:47:46.835Z,22.14
2019-05-30T21:50:20.367Z,22.12
2019-05-30T21:52:52.086Z,22.18
2019-05-30T21:55:23.789Z,22.09
2019-05-30T21:57:57.083Z,22.09
2019-05-30T22:01:17.394Z,22.13
2019-05-30T22:03:49.128Z,22.08
2019-05-30T22:06:21.721Z,22.03
2019-05-30T22:08:54.756Z,22.05
2019-05-30T22:11:26.579Z,22.06
2019-05-30T22:13:58.480Z,22.07
2019-05-30T22:16:30.138Z,22.06
2019-05-30T22:19:02.076Z,22.04
2019-05-30T22:21:33.920Z,22.06
2019-05-30T22:24:05.758Z,22.05
2019-05-30T22:26:37.476Z,22.03
2019-05-30T22:29:09.288Z,22.04
2019-05-30T22:31:42.447Z,22.07
2019-05-30T22:34:14.685Z,22.07
2019-05-30T22:36:46.798Z,22.06
2019-05-30T22:39:19.029Z,22.05
2019-05-30T22:41:52.063Z,22.04
2019-05-30T22:44:24.043Z,22.08
2019-05-30T22:46:56.910Z,22.05
2019-05-30T22:49:29.069Z,22.05
2019-05-30T22:52:00.769Z,22.02
2019-05-30T22:54:32.578Z,22.02
2019-05-30T22:57:04.233Z,21.96
2019-05-30T22:59:35.987Z,21.94
2019-05-30T23:02:07.647Z,21.91
2019-05-30T23:04:39.474Z,21.88
2019-05-30T23:07:11.146Z,21.77
2019-05-30T23:09:43.186Z,21.60
2019-05-30T23:12:16.774Z,21.56
2019-05-30T23:14:48.564Z,21.42
2019-05-30T23:17:20.672Z,21.36
2019-05-30T23:19:53.246Z,21.22
2019-05-30T23:22:25.380Z,21.25
2019-05-30T23:24:57.499Z,21.22
2019-05-30T23:27:30.489Z,21.25
2019-05-30T23:32:32.322Z,21.16
2019-05-30T23:35:04.117Z,21.15
2019-05-30T23:37:35.644Z,21.15
2019-05-30T23:40:08.724Z,21.20
2019-05-30T23:42:40.566Z,21.21
2019-05-30T23:45:13.556Z,21.19
2019-05-30T23:47:45.375Z,21.25
2019-05-30T23:50:17.929Z,21.26
2019-05-30T23:52:50.071Z,21.24
2019-05-30T23:55:22.093Z,21.27
2019-05-30T23:57:54.590Z,21.18
